sensor_id;sensor_type;location;lat;lon;timestamp;pressure;altitude;pressure_sealevel;temperature;humidity
79639;BME280;69114;49.108;8.280;2023-08-31T00:01:29;99872.75;;;12.90;100.00
79639;BME280;69114;49.108;8.280;2023-08-31T00:03:55;99877.38;;;12.86;100.00
79639;BME280;69114;49.108;8.280;2023-08-31T00:06:20;99878.75;;;12.79;100.00
79639;BME280;69114;49.108;8.280;2023-08-31T00:08:47;99888.97;;;12.75;100.00
79639;BME280;69114;49.108;8.280;2023-08-31T00:11:15;99893.38;;;12.76;100.00
79639;BME280;69114;49.108;8.280;2023-08-31T00:13:41;99886.16;;;12.75;100.00
79639;BME280;69114;49.108;8.280;2023-08-31T00:16:06;99898.66;;;12.78;100.00
79639;BME280;69114;49.108;8.280;2023-08-31T00:18:34;99888.16;;;12.75;100.00
79639;BME280;69114;49.108;8.280;2023-08-31T00:21:01;99888.16;;;12.75;100.00
79639;BME280;69114;49.108;8.280;2023-08-31T00:23:26;99898.34;;;12.71;100.00
79639;BME280;69114;49.108;8.280;2023-08-31T00:25:52;99893.78;;;12.66;100.00
79639;BME280;69114;49.108;8.280;2023-08-31T00:28:19;99890.66;;;12.68;100.00
79639;BME280;69114;49.108;8.280;2023-08-31T00:30:44;99886.56;;;12.65;100.00
79639;BME280;69114;49.108;8.280;2023-08-31T00:33:10;99890.50;;;12.64;100.00
79639;BME280;69114;49.108;8.280;2023-08-31T00:35:36;99883.13;;;12.60;100.00
79639;BME280;69114;49.108;8.280;2023-08-31T00:38:02;99886.75;;;12.60;100.00
79639;BME280;69114;49.108;8.280;2023-08-31T00:40:29;99882.63;;;12.57;100.00
79639;BME280;69114;49.108;8.280;2023-08-31T00:42:57;99885.13;;;12.59;100.00
79639;BME280;69114;49.108;8.280;2023-08-31T00:45:23;99890.69;;;12.59;100.00
79639;BME280;69114;49.108;8.280;2023-08-31T00:47:49;99886.09;;;12.63;100.00
79639;BME280;69114;49.108;8.280;2023-08-31T00:50:15;99892.81;;;12.62;100.00
79639;BME280;69114;49.108;8.280;2023-08-31T00:52:43;99901.53;;;12.61;100.00
79639;BME280;69114;49.108;8.280;2023-08-31T00:55:12;99905.44;;;12.68;100.00
79639;BME280;69114;49.108;8.280;2023-08-31T00:57:38;99899.72;;;12.65;100.00
79639;BME280;69114;49.108;8.280;2023-08-31T01:00:04;99895.75;;;12.66;100.00
79639;BME280;69114;49.108;8.280;2023-08-31T01:13:07;99901.50;;;12.69;100.00
79639;BME280;69114;49.108;8.280;2023-08-31T01:15:39;99906.28;;;12.69;100.00
79639;BME280;69114;49.108;8.280;2023-08-31T01:18:09;99908.91;;;12.65;100.00
79639;BME280;69114;49.108;8.280;2023-08-31T01:20:42;99902.84;;;12.63;100.00
79639;BME280;69114;49.108;8.280;2023-08-31T01:23:18;99900.06;;;12.63;100.00
79639;BME280;69114;49.108;8.280;2023-08-31T01:25:45;99902.84;;;12.63;100.00
79639;BME280;69114;49.108;8.280;2023-08-31T01:28:12;99903.50;;;12.60;100.00
79639;BME280;69114;49.108;8.280;2023-08-31T01:30:37;99897.94;;;12.60;100.00
79639;BME280;69114;49.108;8.280;2023-08-31T01:33:03;99911.91;;;12.60;100.00
79639;BME280;69114;49.108;8.280;2023-08-31T01:35:35;99908.09;;;12.65;100.00
79639;BME280;69114;49.108;8.280;2023-08-31T01:38:04;99916.47;;;12.65;100.00
79639;BME280;69114;49.108;8.280;2023-08-31T01:43:01;99917.44;;;12.69;100.00
79639;BME280;69114;49.108;8.280;2023-08-31T01:45:27;99914.47;;;12.74;100.00
79639;BME280;69114;49.108;8.280;2023-08-31T01:47:52;99908.88;;;12.74;100.00
79639;BME280;69114;49.108;8.280;2023-08-31T01:50:17;99922.69;;;12.70;100.00
79639;BME280;69114;49.108;8.280;2023-08-31T01:52:43;99923.50;;;12.71;100.00
79639;BME280;69114;49.108;8.280;2023-08-31T01:55:08;99934.53;;;12.67;100.00
79639;BME280;69114;49.108;8.280;2023-08-31T01:57:34;99933.25;;;12.65;100.00
79639;BME280;69114;49.108;8.280;2023-08-31T02:00:00;99926.16;;;12.67;100.00
79639;BME280;69114;49.108;8.280;2023-08-31T02:02:25;99929.44;;;12.69;100.00
79639;BME280;69114;49.108;8.280;2023-08-31T02:04:50;99935.22;;;12.64;100.00
79639;BME280;69114;49.108;8.280;2023-08-31T02:07:17;99934.25;;;12.60;100.00
79639;BME280;69114;49.108;8.280;2023-08-31T02:09:42;99931.63;;;12.55;100.00
79639;BME280;69114;49.108;8.280;2023-08-31T02:12:08;99933.09;;;12.61;100.00
79639;BME280;69114;49.108;8.280;2023-08-31T02:14:35;99937.69;;;12.57;100.00
79639;BME280;69114;49.108;8.280;2023-08-31T02:17:00;99932.31;;;12.52;100.00
79639;BME280;69114;49.108;8.280;2023-08-31T02:19:26;99925.44;;;12.49;100.00
79639;BME280;69114;49.108;8.280;2023-08-31T02:21:51;99932.84;;;12.45;100.00
79639;BME280;69114;49.108;8.280;2023-08-31T02:24:16;99945.16;;;12.44;100.00
79639;BME280;69114;49.108;8.280;2023-08-31T02:26:41;99937.09;;;12.43;100.00
79639;BME280;69114;49.108;8.280;2023-08-31T02:29:07;99938.91;;;12.39;100.00
79639;BME280;69114;49.108;8.280;2023-08-31T02:31:32;99935.31;;;12.38;100.00
79639;BME280;69114;49.108;8.280;2023-08-31T02:33:57;99947.81;;;12.41;100.00
79639;BME280;69114;49.108;8.280;2023-08-31T02:36:23;99941.72;;;12.39;100.00
79639;BME280;69114;49.108;8.280;2023-08-31T02:38:48;99944.38;;;12.35;100.00
79639;BME280;69114;49.108;8.280;2023-08-31T02:41:15;99939.09;;;12.34;100.00
79639;BME280;69114;49.108;8.280;2023-08-31T02:43:41;99942.25;;;12.32;100.00
79639;BME280;69114;49.108;8.280;2023-08-31T02:46:07;99954.22;;;12.33;100.00
79639;BME280;69114;49.108;8.280;2023-08-31T02:48:33;99942.59;;;12.30;100.00
79639;BME280;69114;49.108;8.280;2023-08-31T02:50:59;99949.28;;;12.29;100.00
79639;BME280;69114;49.108;8.280;2023-08-31T02:53:27;99946.84;;;12.28;100.00
79639;BME280;69114;49.108;8.280;2023-08-31T02:55:52;99950.97;;;12.30;100.00
79639;BME280;69114;49.108;8.280;2023-08-31T02:58:17;99949.28;;;12.29;100.00
79639;BME280;69114;49.108;8.280;2023-08-31T03:00:44;99950.28;;;12.34;100.00
79639;BME280;69114;49.108;8.280;2023-08-31T03:03:13;99945.03;;;12.32;100.00
79639;BME280;69114;49.108;8.280;2023-08-31T03:05:38;99948.63;;;12.33;100.00
79639;BME280;69114;49.108;8.280;2023-08-31T03:08:03;99946.03;;;12.27;100.00
79639;BME280;69114;49.108;8.280;2023-08-31T03:10:29;99961.16;;;12.26;100.00
79639;BME280;69114;49.108;8.280;2023-08-31T03:12:54;99951.31;;;12.20;100.00
79639;BME280;69114;49.108;8.280;2023-08-31T03:15:20;99954.94;;;12.21;100.00
79639;BME280;69114;49.108;8.280;2023-08-31T03:17:45;99963.31;;;12.21;100.00
79639;BME280;69114;49.108;8.280;2023-08-31T03:20:10;99965.28;;;12.20;100.00
79639;BME280;69114;49.108;8.280;2023-08-31T03:22:36;99967.22;;;12.20;100.00
79639;BME280;69114;49.108;8.280;2023-08-31T03:25:01;99978.25;;;12.16;100.00
79639;BME280;69114;49.108;8.280;2023-08-31T03:27:29;99970.69;;;12.17;100.00
79639;BME280;69114;49.108;8.280;2023-08-31T03:29:55;99982.69;;;12.17;100.00
79639;BME280;69114;49.108;8.280;2023-08-31T03:32:20;99984.81;;;12.20;100.00
79639;BME280;69114;49.108;8.280;2023-08-31T03:34:45;99982.50;;;12.22;100.00
79639;BME280;69114;49.108;8.280;2023-08-31T03:37:11;99979.72;;;12.22;100.00
79639;BME280;69114;49.108;8.280;2023-08-31T03:39:36;99975.75;;;12.23;100.00
79639;BME280;69114;49.108;8.280;2023-08-31T03:42:02;99982.16;;;12.24;100.00
79639;BME280;69114;49.108;8.280;2023-08-31T03:44:28;99979.38;;;12.24;100.00
79639;BME280;69114;49.108;8.280;2023-08-31T03:46:53;99990.22;;;12.25;100.00
79639;BME280;69114;49.108;8.280;2023-08-31T03:49:18;99991.38;;;12.24;100.00
79639;BME280;69114;49.108;8.280;2023-08-31T03:51:43;99988.56;;;12.24;100.00
79639;BME280;69114;49.108;8.280;2023-08-31T03:54:09;99982.69;;;12.26;100.00
79639;BME280;69114;49.108;8.280;2023-08-31T03:56:34;99981.84;;;12.25;100.00
79639;BME280;69114;49.108;8.280;2023-08-31T03:59:01;99987.44;;;12.25;100.00
79639;BME280;69114;49.108;8.280;2023-08-31T04:01:28;100002.06;;;12.22;100.00
79639;BME280;69114;49.108;8.280;2023-08-31T04:03:54;99993.69;;;12.22;100.00
79639;BME280;69114;49.108;8.280;2023-08-31T04:06:19;99999.44;;;12.26;100.00
79639;BME280;69114;49.108;8.280;2023-08-31T04:08:44;100001.41;;;12.17;100.00
79639;BME280;69114;49.108;8.280;2023-08-31T04:11:10;99995.19;;;12.11;100.00
79639;BME280;69114;49.108;8.280;2023-08-31T04:13:35;100005.19;;;12.03;100.00
79639;BME280;69114;49.108;8.280;2023-08-31T04:16:00;100011.13;;;12.02;100.00
79639;BME280;69114;49.108;8.280;2023-08-31T04:18:26;100007.19;;;12.03;100.00
79639;BME280;69114;49.108;8.280;2023-08-31T04:20:52;100022.28;;;12.02;100.00
79639;BME280;69114;49.108;8.280;2023-08-31T04:23:19;100021.78;;;12.00;100.00
79639;BME280;69114;49.108;8.280;2023-08-31T04:25:45;100022.13;;;12.07;100.00
79639;BME280;69114;49.108;8.280;2023-08-31T04:28:11;100020.16;;;12.08;100.00
79639;BME280;69114;49.108;8.280;2023-08-31T04:30:36;100013.25;;;12.05;100.00
79639;BME280;69114;49.108;8.280;2023-08-31T04:33:02;100013.06;;;12.10;100.00
79639;BME280;69114;49.108;8.280;2023-08-31T04:35:29;100010.94;;;12.07;100.00
79639;BME280;69114;49.108;8.280;2023-08-31T04:37:56;100018.16;;;12.08;100.00
79639;BME280;69114;49.108;8.280;2023-08-31T04:40:22;100012.94;;;12.07;100.00
79639;BME280;69114;49.108;8.280;2023-08-31T04:42:47;100022.44;;;12.05;100.00
79639;BME280;69114;49.108;8.280;2023-08-31T04:45:12;100025.56;;;12.04;100.00
79639;BME280;69114;49.108;8.280;2023-08-31T04:47:38;100027.69;;;12.07;100.00
79639;BME280;69114;49.108;8.280;2023-08-31T04:50:03;100030.31;;;12.03;100.00
79639;BME280;69114;49.108;8.280;2023-08-31T04:52:31;100025.38;;;12.00;100.00
79639;BME280;69114;49.108;8.280;2023-08-31T04:54:57;100029.50;;;12.03;100.00
79639;BME280;69114;49.108;8.280;2023-08-31T04:57:22;100043.28;;;12.08;100.00
79639;BME280;69114;49.108;8.280;2023-08-31T04:59:48;100046.25;;;12.03;100.00
79639;BME280;69114;49.108;8.280;2023-08-31T05:02:14;100044.44;;;11.98;100.00
79639;BME280;69114;49.108;8.280;2023-08-31T05:04:39;100041.66;;;11.98;100.00
79639;BME280;69114;49.108;8.280;2023-08-31T05:07:05;100050.50;;;12.00;100.00
79639;BME280;69114;49.108;8.280;2023-08-31T05:09:30;100064.16;;;12.02;100.00
79639;BME280;69114;49.108;8.280;2023-08-31T05:12:00;100065.78;;;12.03;100.00
79639;BME280;69114;49.108;8.280;2023-08-31T05:14:25;100067.09;;;12.05;100.00
79639;BME280;69114;49.108;8.280;2023-08-31T05:16:51;100075.97;;;12.08;100.00
79639;BME280;69114;49.108;8.280;2023-08-31T05:19:16;100071.38;;;12.12;100.00
79639;BME280;69114;49.108;8.280;2023-08-31T05:21:42;100076.97;;;12.12;100.00
79639;BME280;69114;49.108;8.280;2023-08-31T05:24:07;100085.81;;;12.14;100.00
79639;BME280;69114;49.108;8.280;2023-08-31T05:26:32;100082.69;;;12.15;100.00
79639;BME280;69114;49.108;8.280;2023-08-31T05:28:58;100086.63;;;12.14;100.00
79639;BME280;69114;49.108;8.280;2023-08-31T05:31:23;100092.22;;;12.14;99.89
79639;BME280;69114;49.108;8.280;2023-08-31T05:33:49;100096.19;;;12.13;100.00
79639;BME280;69114;49.108;8.280;2023-08-31T05:36:14;100091.75;;;12.12;99.73
79639;BME280;69114;49.108;8.280;2023-08-31T05:38:39;100088.44;;;12.10;100.00
79639;BME280;69114;49.108;8.280;2023-08-31T05:41:09;100087.97;;;12.08;99.68
79639;BME280;69114;49.108;8.280;2023-08-31T05:43:36;100093.53;;;12.08;99.68
79639;BME280;69114;49.108;8.280;2023-08-31T05:46:01;100105.34;;;12.05;99.78
79639;BME280;69114;49.108;8.280;2023-08-31T05:48:27;100104.53;;;12.04;100.00
79639;BME280;69114;49.108;8.280;2023-08-31T05:50:53;100098.78;;;12.01;99.72
79639;BME280;69114;49.108;8.280;2023-08-31T05:53:19;100097.97;;;12.00;100.00
79639;BME280;69114;49.108;8.280;2023-08-31T05:55:44;100103.72;;;11.95;100.00
79639;BME280;69114;49.108;8.280;2023-08-31T05:58:10;100104.88;;;12.03;100.00
79639;BME280;69114;49.108;8.280;2023-08-31T06:00:35;100111.63;;;12.02;100.00
79639;BME280;69114;49.108;8.280;2023-08-31T06:03:01;100102.72;;;12.00;100.00
79639;BME280;69114;49.108;8.280;2023-08-31T06:05:29;100099.28;;;12.03;100.00
79639;BME280;69114;49.108;8.280;2023-08-31T06:07:56;100106.69;;;12.08;100.00
79639;BME280;69114;49.108;8.280;2023-08-31T06:10:22;100116.53;;;12.22;99.84
79639;BME280;69114;49.108;8.280;2023-08-31T06:12:48;100124.41;;;12.38;99.32
79639;BME280;69114;49.108;8.280;2023-08-31T06:15:14;100120.63;;;12.42;98.91
79639;BME280;69114;49.108;8.280;2023-08-31T06:17:40;100124.75;;;12.45;97.91
79639;BME280;69114;49.108;8.280;2023-08-31T06:20:07;100131.47;;;12.70;97.12
79639;BME280;69114;49.108;8.280;2023-08-31T06:22:33;100129.44;;;12.96;95.62
79639;BME280;69114;49.108;8.280;2023-08-31T06:24:59;100127.31;;;12.85;95.72
79639;BME280;69114;49.108;8.280;2023-08-31T06:27:24;100124.19;;;12.86;96.22
79639;BME280;69114;49.108;8.280;2023-08-31T06:29:50;100122.69;;;12.89;95.62
79639;BME280;69114;49.108;8.280;2023-08-31T06:32:16;100120.06;;;12.92;95.55
79639;BME280;69114;49.108;8.280;2023-08-31T06:34:42;100125.78;;;13.04;95.34
79639;BME280;69114;49.108;8.280;2023-08-31T06:37:07;100122.66;;;13.06;94.85
79639;BME280;69114;49.108;8.280;2023-08-31T06:39:32;100125.56;;;13.18;94.08
79639;BME280;69114;49.108;8.280;2023-08-31T06:41:58;100117.34;;;13.30;93.55
79639;BME280;69114;49.108;8.280;2023-08-31T06:44:24;100132.22;;;13.43;92.92
79639;BME280;69114;49.108;8.280;2023-08-31T06:46:49;100133.34;;;13.51;93.01
79639;BME280;69114;49.108;8.280;2023-08-31T06:49:14;100135.09;;;13.64;91.45
79639;BME280;69114;49.108;8.280;2023-08-31T06:51:40;100148.03;;;13.77;91.08
79639;BME280;69114;49.108;8.280;2023-08-31T06:54:05;100153.06;;;13.63;90.47
79639;BME280;69114;49.108;8.280;2023-08-31T06:56:35;100148.50;;;13.79;90.37
79639;BME280;69114;49.108;8.280;2023-08-31T06:59:00;100148.47;;;13.88;88.79
79639;BME280;69114;49.108;8.280;2023-08-31T07:01:27;100149.09;;;13.94;88.16
79639;BME280;69114;49.108;8.280;2023-08-31T07:03:53;100157.78;;;14.01;88.30
79639;BME280;69114;49.108;8.280;2023-08-31T07:06:18;100159.56;;;14.05;87.85
79639;BME280;69114;49.108;8.280;2023-08-31T07:08:44;100154.56;;;14.11;87.75
79639;BME280;69114;49.108;8.280;2023-08-31T07:11:11;100156.47;;;14.19;86.66
79639;BME280;69114;49.108;8.280;2023-08-31T07:13:36;100161.94;;;14.37;85.80
79639;BME280;69114;49.108;8.280;2023-08-31T07:16:02;100160.03;;;14.28;86.52
79639;BME280;69114;49.108;8.280;2023-08-31T07:18:27;100166.88;;;14.40;84.21
79639;BME280;69114;49.108;8.280;2023-08-31T07:20:53;100161.34;;;14.52;84.18
79639;BME280;69114;49.108;8.280;2023-08-31T07:23:18;100165.50;;;14.46;82.78
79639;BME280;69114;49.108;8.280;2023-08-31T07:25:43;100156.50;;;14.61;83.25
79639;BME280;69114;49.108;8.280;2023-08-31T07:28:09;100162.19;;;14.85;82.87
79639;BME280;69114;49.108;8.280;2023-08-31T07:30:35;100155.75;;;14.73;80.72
79639;BME280;69114;49.108;8.280;2023-08-31T07:33:01;100157.72;;;14.72;80.72
79639;BME280;69114;49.108;8.280;2023-08-31T07:35:29;100159.16;;;14.78;80.48
79639;BME280;69114;49.108;8.280;2023-08-31T07:37:54;100166.22;;;14.97;80.99
79639;BME280;69114;49.108;8.280;2023-08-31T07:40:19;100161.56;;;15.01;81.39
79639;BME280;69114;49.108;8.280;2023-08-31T07:42:45;100162.84;;;15.03;78.52
79639;BME280;69114;49.108;8.280;2023-08-31T07:45:10;100166.72;;;15.11;78.24
79639;BME280;69114;49.108;8.280;2023-08-31T07:47:35;100170.84;;;15.38;78.20
79639;BME280;69114;49.108;8.280;2023-08-31T07:50:01;100177.09;;;15.44;76.61
79639;BME280;69114;49.108;8.280;2023-08-31T07:52:27;100177.19;;;15.35;75.72
79639;BME280;69114;49.108;8.280;2023-08-31T07:54:55;100194.53;;;15.49;75.09
79639;BME280;69114;49.108;8.280;2023-08-31T07:57:20;100188.78;;;15.46;75.42
79639;BME280;69114;49.108;8.280;2023-08-31T07:59:46;100183.28;;;15.49;74.61
79639;BME280;69114;49.108;8.280;2023-08-31T08:02:11;100190.88;;;15.61;74.16
79639;BME280;69114;49.108;8.280;2023-08-31T08:04:36;100192.34;;;15.67;73.49
79639;BME280;69114;49.108;8.280;2023-08-31T08:07:02;100194.69;;;15.77;73.60
79639;BME280;69114;49.108;8.280;2023-08-31T08:09:29;100184.50;;;15.85;73.59
79639;BME280;69114;49.108;8.280;2023-08-31T08:11:55;100189.47;;;16.28;72.60
79639;BME280;69114;49.108;8.280;2023-08-31T08:14:21;100190.66;;;16.39;70.73
79639;BME280;69114;49.108;8.280;2023-08-31T08:16:46;100197.97;;;16.56;71.61
79639;BME280;69114;49.108;8.280;2023-08-31T08:19:11;100204.91;;;16.47;70.24
79639;BME280;69114;49.108;8.280;2023-08-31T08:21:37;100200.94;;;16.48;68.86
79639;BME280;69114;49.108;8.280;2023-08-31T08:24:02;100207.25;;;16.57;68.46
79639;BME280;69114;49.108;8.280;2023-08-31T08:26:28;100211.31;;;16.19;67.81
79639;BME280;69114;49.108;8.280;2023-08-31T08:28:53;100214.13;;;16.59;68.27
79639;BME280;69114;49.108;8.280;2023-08-31T08:31:19;100210.81;;;16.82;66.22
79639;BME280;69114;49.108;8.280;2023-08-31T08:33:44;100213.97;;;16.80;65.53
79639;BME280;69114;49.108;8.280;2023-08-31T08:36:09;100212.97;;;16.73;66.45
79639;BME280;69114;49.108;8.280;2023-08-31T08:38:35;100212.22;;;16.76;65.71
79639;BME280;69114;49.108;8.280;2023-08-31T08:41:09;100213.69;;;16.57;65.02
79639;BME280;69114;49.108;8.280;2023-08-31T08:43:37;100218.19;;;16.86;64.45
79639;BME280;69114;49.108;8.280;2023-08-31T08:46:05;100212.00;;;16.69;64.26
79639;BME280;69114;49.108;8.280;2023-08-31T08:48:32;100215.38;;;16.86;63.52
79639;BME280;69114;49.108;8.280;2023-08-31T08:50:59;100211.75;;;17.14;63.78
79639;BME280;69114;49.108;8.280;2023-08-31T08:53:24;100221.16;;;17.06;63.92
79639;BME280;69114;49.108;8.280;2023-08-31T08:55:50;100223.41;;;17.28;64.03
79639;BME280;69114;49.108;8.280;2023-08-31T08:58:15;100206.78;;;17.55;62.46
79639;BME280;69114;49.108;8.280;2023-08-31T09:00:41;100215.44;;;17.18;60.52
79639;BME280;69114;49.108;8.280;2023-08-31T09:03:07;100213.22;;;16.96;61.06
79639;BME280;69114;49.108;8.280;2023-08-31T09:05:33;100203.81;;;17.48;62.12
79639;BME280;69114;49.108;8.280;2023-08-31T09:08:06;100210.78;;;17.54;59.21
79639;BME280;69114;49.108;8.280;2023-08-31T09:10:39;100203.03;;;17.95;58.65
79639;BME280;69114;49.108;8.280;2023-08-31T09:13:05;100209.19;;;17.84;56.93
79639;BME280;69114;49.108;8.280;2023-08-31T09:15:51;100202.75;;;18.00;56.33
79639;BME280;69114;49.108;8.280;2023-08-31T09:18:30;100215.44;;;17.94;56.34
79639;BME280;69114;49.108;8.280;2023-08-31T09:21:00;100205.16;;;18.17;56.50
79639;BME280;69114;49.108;8.280;2023-08-31T09:23:26;100213.06;;;18.47;55.50
79639;BME280;69114;49.108;8.280;2023-08-31T09:25:54;100207.72;;;18.41;54.26
79639;BME280;69114;49.108;8.280;2023-08-31T09:28:21;100216.97;;;18.58;54.63
79639;BME280;69114;49.108;8.280;2023-08-31T09:30:48;100210.75;;;18.68;54.23
79639;BME280;69114;49.108;8.280;2023-08-31T09:33:16;100219.25;;;18.87;53.54
79639;BME280;69114;49.108;8.280;2023-08-31T09:35:56;100207.81;;;18.80;52.59
79639;BME280;69114;49.108;8.280;2023-08-31T09:38:21;100207.88;;;18.84;51.35
79639;BME280;69114;49.108;8.280;2023-08-31T09:40:47;100210.34;;;19.05;51.50
79639;BME280;69114;49.108;8.280;2023-08-31T09:43:19;100207.03;;;19.03;51.81
79639;BME280;69114;49.108;8.280;2023-08-31T09:45:46;100203.34;;;18.99;51.51
79639;BME280;69114;49.108;8.280;2023-08-31T09:48:13;100214.34;;;19.04;51.09
79639;BME280;69114;49.108;8.280;2023-08-31T09:50:42;100201.09;;;19.08;51.13
79639;BME280;69114;49.108;8.280;2023-08-31T09:53:10;100206.00;;;19.11;50.66
79639;BME280;69114;49.108;8.280;2023-08-31T09:55:36;100212.31;;;19.24;51.20
79639;BME280;69114;49.108;8.280;2023-08-31T09:58:06;100198.81;;;19.36;51.51
79639;BME280;69114;49.108;8.280;2023-08-31T10:00:32;100203.56;;;19.52;49.81
79639;BME280;69114;49.108;8.280;2023-08-31T10:03:03;100207.38;;;19.40;48.44
79639;BME280;69114;49.108;8.280;2023-08-31T10:05:28;100209.00;;;19.18;49.33
79639;BME280;69114;49.108;8.280;2023-08-31T10:07:54;100204.53;;;19.82;48.46
79639;BME280;69114;49.108;8.280;2023-08-31T10:10:21;100207.75;;;19.38;50.12
79639;BME280;69114;49.108;8.280;2023-08-31T10:12:50;100215.50;;;19.03;49.85
79639;BME280;69114;49.108;8.280;2023-08-31T10:15:17;100219.84;;;18.97;49.63
79639;BME280;69114;49.108;8.280;2023-08-31T10:17:43;100215.22;;;18.88;50.61
79639;BME280;69114;49.108;8.280;2023-08-31T10:20:10;100218.03;;;18.69;51.89
79639;BME280;69114;49.108;8.280;2023-08-31T10:22:37;100196.00;;;18.39;52.45
79639;BME280;69114;49.108;8.280;2023-08-31T10:25:04;100211.09;;;18.47;53.01
79639;BME280;69114;49.108;8.280;2023-08-31T10:27:43;100213.16;;;18.15;53.63
79639;BME280;69114;49.108;8.280;2023-08-31T10:33:22;100229.97;;;18.11;55.14
79639;BME280;69114;49.108;8.280;2023-08-31T10:38:32;100217.56;;;18.48;55.52
79639;BME280;69114;49.108;8.280;2023-08-31T10:43:54;100212.31;;;19.24;53.36
79639;BME280;69114;49.108;8.280;2023-08-31T10:46:32;100207.44;;;19.43;52.71
79639;BME280;69114;49.108;8.280;2023-08-31T10:49:13;100209.88;;;18.83;53.33
79639;BME280;69114;49.108;8.280;2023-08-31T10:51:41;100225.41;;;18.38;54.94
79639;BME280;69114;49.108;8.280;2023-08-31T10:54:26;100226.56;;;17.86;56.40
79639;BME280;69114;49.108;8.280;2023-08-31T10:59:21;100214.00;;;18.00;57.29
79639;BME280;69114;49.108;8.280;2023-08-31T11:01:57;100216.81;;;18.00;57.03
79639;BME280;69114;49.108;8.280;2023-08-31T11:04:25;100219.44;;;18.08;57.71
79639;BME280;69114;49.108;8.280;2023-08-31T11:07:15;100223.09;;;18.09;56.56
79639;BME280;69114;49.108;8.280;2023-08-31T11:09:41;100216.28;;;18.10;56.11
79639;BME280;69114;49.108;8.280;2023-08-31T11:12:07;100213.03;;;18.27;55.16
79639;BME280;69114;49.108;8.280;2023-08-31T11:14:33;100215.75;;;18.39;55.10
79639;BME280;69114;49.108;8.280;2023-08-31T11:16:59;100214.06;;;18.54;52.60
79639;BME280;69114;49.108;8.280;2023-08-31T11:19:25;100223.75;;;18.73;53.43
79639;BME280;69114;49.108;8.280;2023-08-31T11:21:51;100217.09;;;18.65;53.16
79639;BME280;69114;49.108;8.280;2023-08-31T11:24:17;100220.22;;;18.60;53.22
79639;BME280;69114;49.108;8.280;2023-08-31T11:26:42;100216.22;;;18.61;53.32
79639;BME280;69114;49.108;8.280;2023-08-31T11:29:08;100211.00;;;18.43;52.74
79639;BME280;69114;49.108;8.280;2023-08-31T11:31:38;100210.44;;;18.54;53.73
79639;BME280;69114;49.108;8.280;2023-08-31T11:34:05;100206.63;;;18.81;53.20
79639;BME280;69114;49.108;8.280;2023-08-31T11:36:33;100215.06;;;19.20;52.11
79639;BME280;69114;49.108;8.280;2023-08-31T11:39:00;100210.06;;;19.56;50.97
79639;BME280;69114;49.108;8.280;2023-08-31T11:44:08;100205.16;;;19.95;50.46
79639;BME280;69114;49.108;8.280;2023-08-31T11:46:35;100201.38;;;20.67;47.23
79639;BME280;69114;49.108;8.280;2023-08-31T11:49:02;100200.03;;;21.58;45.19
79639;BME280;69114;49.108;8.280;2023-08-31T11:51:30;100198.00;;;21.59;45.85
79639;BME280;69114;49.108;8.280;2023-08-31T11:53:56;100202.25;;;21.38;45.48
79639;BME280;69114;49.108;8.280;2023-08-31T11:56:23;100187.06;;;20.86;46.88
79639;BME280;69114;49.108;8.280;2023-08-31T11:58:50;100182.59;;;20.52;48.61
79639;BME280;69114;49.108;8.280;2023-08-31T12:01:22;100192.47;;;20.12;49.49
79639;BME280;69114;49.108;8.280;2023-08-31T12:03:47;100189.22;;;20.10;49.02
79639;BME280;69114;49.108;8.280;2023-08-31T12:06:19;100196.84;;;19.60;49.45
79639;BME280;69114;49.108;8.280;2023-08-31T12:08:44;100182.03;;;19.43;49.96
79639;BME280;69114;49.108;8.280;2023-08-31T12:11:10;100187.47;;;19.33;51.14
79639;BME280;69114;49.108;8.280;2023-08-31T12:13:35;100189.06;;;19.11;50.97
79639;BME280;69114;49.108;8.280;2023-08-31T12:16:01;100189.16;;;19.14;50.84
79639;BME280;69114;49.108;8.280;2023-08-31T12:18:37;100186.91;;;19.24;51.14
79639;BME280;69114;49.108;8.280;2023-08-31T12:21:02;100197.19;;;19.35;50.97
79639;BME280;69114;49.108;8.280;2023-08-31T12:23:29;100186.94;;;19.47;51.71
79639;BME280;69114;49.108;8.280;2023-08-31T12:25:55;100183.63;;;20.13;50.43
79639;BME280;69114;49.108;8.280;2023-08-31T12:28:22;100186.88;;;20.15;51.03
79639;BME280;69114;49.108;8.280;2023-08-31T12:30:54;100181.09;;;20.61;47.47
79639;BME280;69114;49.108;8.280;2023-08-31T12:33:21;100184.75;;;20.62;48.03
79639;BME280;69114;49.108;8.280;2023-08-31T12:35:47;100178.63;;;20.60;47.39
79639;BME280;69114;49.108;8.280;2023-08-31T12:38:13;100174.47;;;19.97;48.02
79639;BME280;69114;49.108;8.280;2023-08-31T12:40:39;100184.00;;;19.85;48.99
79639;BME280;69114;49.108;8.280;2023-08-31T12:43:05;100190.28;;;19.75;49.54
79639;BME280;69114;49.108;8.280;2023-08-31T12:45:30;100192.09;;;21.00;47.95
79639;BME280;69114;49.108;8.280;2023-08-31T12:47:56;100192.09;;;21.34;46.78
79639;BME280;69114;49.108;8.280;2023-08-31T12:50:21;100181.28;;;21.91;45.07
79639;BME280;69114;49.108;8.280;2023-08-31T12:52:47;100178.78;;;22.34;44.64
79639;BME280;69114;49.108;8.280;2023-08-31T12:55:13;100190.56;;;21.84;44.27
79639;BME280;69114;49.108;8.280;2023-08-31T12:57:39;100173.00;;;22.19;43.05
79639;BME280;69114;49.108;8.280;2023-08-31T13:00:05;100178.78;;;22.34;42.62
79639;BME280;69114;49.108;8.280;2023-08-31T13:02:34;100177.53;;;21.35;45.18
79639;BME280;69114;49.108;8.280;2023-08-31T13:04:59;100172.63;;;20.65;47.15
79639;BME280;69114;49.108;8.280;2023-08-31T13:07:24;100163.31;;;20.08;48.37
79639;BME280;69114;49.108;8.280;2023-08-31T13:09:50;100172.03;;;19.95;48.95
79639;BME280;69114;49.108;8.280;2023-08-31T13:12:15;100167.84;;;19.63;50.26